createdAt,value
2017-07-19T00:01:20.761Z,84.00
2017-07-19T00:03:47.151Z,83.60
2017-07-19T00:06:13.579Z,83.90
2017-07-19T00:08:39.942Z,83.70
2017-07-19T00:11:06.313Z,83.70
2017-07-19T00:13:32.743Z,84.00
2017-07-19T00:15:59.877Z,83.80
2017-07-19T00:18:27.048Z,83.80
2017-07-19T00:20:53.450Z,83.80
2017-07-19T00:23:19.850Z,84.50
2017-07-19T00:25:46.199Z,85.20
2017-07-19T00:28:12.615Z,85.10
2017-07-19T00:30:38.980Z,86.30
2017-07-19T00:33:05.359Z,85.20
2017-07-19T00:35:31.739Z,84.80
2017-07-19T00:37:58.116Z,85.70
2017-07-19T00:40:24.492Z,85.90
2017-07-19T00:42:50.878Z,85.60
2017-07-19T00:45:17.251Z,85.90
2017-07-19T00:47:43.621Z,86.00
2017-07-19T00:50:10.008Z,86.70
2017-07-19T00:52:37.165Z,86.60
2017-07-19T00:55:04.284Z,85.90
2017-07-19T00:57:30.708Z,85.90
2017-07-19T00:59:57.841Z,86.30
2017-07-19T01:02:24.207Z,86.30
2017-07-19T01:04:50.639Z,86.40
2017-07-19T01:07:17.074Z,85.70
2017-07-19T01:09:44.207Z,86.10
2017-07-19T01:12:12.327Z,86.40
2017-07-19T01:14:38.768Z,86.30
2017-07-19T01:17:05.158Z,86.30
2017-07-19T01:19:31.559Z,85.60
2017-07-19T01:21:57.991Z,85.60
2017-07-19T01:24:24.363Z,86.10
2017-07-19T01:26:50.787Z,86.70
2017-07-19T01:29:17.911Z,86.30
2017-07-19T01:31:45.018Z,86.50
2017-07-19T01:34:12.168Z,86.00
2017-07-19T01:36:39.291Z,86.60
2017-07-19T01:39:05.672Z,86.60
2017-07-19T01:41:32.079Z,87.20
2017-07-19T01:43:58.474Z,86.10
2017-07-19T01:46:24.939Z,87.10
2017-07-19T01:48:51.413Z,86.40
2017-07-19T01:51:17.892Z,86.50
2017-07-19T01:53:44.296Z,84.80
2017-07-19T01:56:10.741Z,84.40
2017-07-19T01:58:37.871Z,85.00
2017-07-19T02:01:04.318Z,84.90
2017-07-19T02:03:30.751Z,85.70
2017-07-19T02:05:57.123Z,85.70
2017-07-19T02:08:24.272Z,85.40
2017-07-19T02:10:50.686Z,85.40
2017-07-19T02:13:17.065Z,86.00
2017-07-19T02:15:43.472Z,86.30
2017-07-19T02:18:09.868Z,86.60
2017-07-19T02:20:36.331Z,87.00
2017-07-19T02:23:02.747Z,86.20
2017-07-19T02:25:29.125Z,86.20
2017-07-19T02:27:55.533Z,85.70
2017-07-19T02:30:21.907Z,85.50
2017-07-19T02:32:49.020Z,86.40
2017-07-19T02:35:16.451Z,87.30
2017-07-19T02:37:42.825Z,85.50
2017-07-19T02:40:09.219Z,86.90
2017-07-19T02:42:36.384Z,87.00
2017-07-19T02:45:02.772Z,86.10
2017-07-19T02:47:29.143Z,85.40
2017-07-19T02:49:55.483Z,85.50
2017-07-19T02:52:21.858Z,85.90
2017-07-19T02:54:48.272Z,86.80
2017-07-19T02:57:14.755Z,87.00
2017-07-19T02:59:41.131Z,86.20
2017-07-19T03:02:08.544Z,86.80
2017-07-19T03:04:34.903Z,86.50
2017-07-19T03:07:01.283Z,86.70
2017-07-19T03:09:27.667Z,87.20
2017-07-19T03:11:54.051Z,86.70
2017-07-19T03:14:20.427Z,87.10
2017-07-19T03:16:46.850Z,87.40
2017-07-19T03:19:13.279Z,87.00
2017-07-19T03:21:39.640Z,87.00
2017-07-19T03:24:06.058Z,85.30
2017-07-19T03:26:33.143Z,86.20
2017-07-19T03:28:59.555Z,86.30
2017-07-19T03:31:25.964Z,86.40
2017-07-19T03:33:53.362Z,86.20
2017-07-19T03:36:20.476Z,86.60
2017-07-19T03:38:47.638Z,86.60
2017-07-19T03:41:14.747Z,86.50
2017-07-19T03:43:41.123Z,86.50
2017-07-19T03:46:07.532Z,87.10
2017-07-19T03:48:33.910Z,86.80
2017-07-19T03:51:01.030Z,86.30
2017-07-19T03:53:27.424Z,86.30
2017-07-19T03:55:53.812Z,87.80
2017-07-19T03:58:20.199Z,86.90
2017-07-19T04:00:46.646Z,87.10
2017-07-19T04:03:13.039Z,86.90
2017-07-19T04:05:39.423Z,87.10
2017-07-19T04:08:05.795Z,88.00
2017-07-19T04:10:32.205Z,87.80
2017-07-19T04:12:58.591Z,88.00
2017-07-19T04:15:25.048Z,87.60
2017-07-19T04:17:51.502Z,87.90
2017-07-19T04:20:18.630Z,88.90
2017-07-19T04:22:45.799Z,89.20
2017-07-19T04:25:12.923Z,89.90
2017-07-19T04:27:39.335Z,89.90
2017-07-19T04:30:05.695Z,89.80
2017-07-19T04:32:32.119Z,89.60
2017-07-19T04:34:58.494Z,90.10
2017-07-19T04:37:24.927Z,90.00
2017-07-19T04:39:51.307Z,90.00
2017-07-19T04:42:17.702Z,89.90
2017-07-19T04:44:44.075Z,90.10
2017-07-19T04:47:10.505Z,90.10
2017-07-19T04:49:36.892Z,90.00
2017-07-19T04:52:03.321Z,90.20
2017-07-19T04:54:29.795Z,90.20
2017-07-19T04:56:56.223Z,90.30
2017-07-19T04:59:23.440Z,90.20
2017-07-19T05:01:49.855Z,90.20
2017-07-19T05:04:16.269Z,90.00
2017-07-19T05:06:42.656Z,90.10
2017-07-19T05:09:09.027Z,90.60
2017-07-19T05:11:35.378Z,90.80
2017-07-19T05:14:01.743Z,90.80
2017-07-19T05:16:28.124Z,90.60
2017-07-19T05:18:54.580Z,90.80
2017-07-19T05:21:20.963Z,90.80
2017-07-19T05:23:48.459Z,91.20
2017-07-19T05:26:15.581Z,90.50
2017-07-19T05:28:42.746Z,91.10
2017-07-19T05:31:09.143Z,91.10
2017-07-19T05:33:35.559Z,90.80
2017-07-19T05:36:02.651Z,90.80
2017-07-19T05:38:29.087Z,90.80
2017-07-19T05:40:55.460Z,90.50
2017-07-19T05:43:21.883Z,90.40
2017-07-19T05:45:48.227Z,90.60
2017-07-19T05:48:14.619Z,87.90
2017-07-19T05:50:41.035Z,86.10
2017-07-19T05:53:07.452Z,84.50
2017-07-19T05:55:33.799Z,87.10
2017-07-19T05:58:00.971Z,87.70
2017-07-19T06:00:28.091Z,83.80
2017-07-19T06:02:54.527Z,83.80
2017-07-19T06:05:20.939Z,81.70
2017-07-19T06:07:48.071Z,85.70
2017-07-19T06:10:14.423Z,85.70
2017-07-19T06:12:40.847Z,80.80
2017-07-19T06:15:07.207Z,81.90
2017-07-19T06:17:34.335Z,79.90
2017-07-19T06:20:01.455Z,77.90
2017-07-19T06:22:27.842Z,77.90
2017-07-19T06:24:54.240Z,76.80
2017-07-19T06:27:20.595Z,80.90
2017-07-19T06:29:46.991Z,80.50
2017-07-19T06:32:13.356Z,76.40
2017-07-19T06:34:39.771Z,76.90
2017-07-19T06:37:06.891Z,73.50
2017-07-19T06:39:33.275Z,73.50
2017-07-19T06:41:59.651Z,77.30
2017-07-19T06:44:26.791Z,77.50
2017-07-19T06:46:53.179Z,76.90
2017-07-19T06:49:20.310Z,75.30
2017-07-19T06:51:46.681Z,74.30
2017-07-19T06:54:13.067Z,72.50
2017-07-19T06:56:40.571Z,75.10
2017-07-19T06:59:06.972Z,75.70
2017-07-19T07:01:33.369Z,73.90
2017-07-19T07:03:59.761Z,69.90
2017-07-19T07:06:26.867Z,70.30
2017-07-19T07:08:53.227Z,70.30
2017-07-19T07:11:19.661Z,72.30
2017-07-19T07:13:46.143Z,70.10
2017-07-19T07:16:12.531Z,69.00
2017-07-19T07:18:39.730Z,67.50
2017-07-19T07:21:06.033Z,67.30
2017-07-19T07:23:32.340Z,67.70
2017-07-19T07:25:58.700Z,69.30
2017-07-19T07:28:25.103Z,66.50
2017-07-19T07:30:51.459Z,66.80
2017-07-19T07:33:18.647Z,65.70
2017-07-19T07:35:45.055Z,65.60
2017-07-19T07:38:11.546Z,66.70
2017-07-19T07:40:37.953Z,66.00
2017-07-19T07:43:04.278Z,64.40
2017-07-19T07:45:30.684Z,66.30
2017-07-19T07:47:57.167Z,68.10
2017-07-19T07:50:23.598Z,69.40
2017-07-19T07:52:49.987Z,65.60
2017-07-19T07:55:16.429Z,68.70
2017-07-19T07:57:42.807Z,64.30
2017-07-19T08:00:09.203Z,62.90
2017-07-19T08:02:35.559Z,62.50
2017-07-19T08:05:02.148Z,62.20
2017-07-19T08:07:28.499Z,62.00
2017-07-19T08:09:55.631Z,65.90
2017-07-19T08:12:23.013Z,65.70
2017-07-19T08:14:49.408Z,61.80
2017-07-19T08:17:15.815Z,59.60
2017-07-19T08:19:42.239Z,59.40
2017-07-19T08:22:08.628Z,59.90
2017-07-19T08:24:35.062Z,58.20
2017-07-19T08:27:01.456Z,62.50
2017-07-19T08:29:27.871Z,61.60
2017-07-19T08:31:54.296Z,62.00
2017-07-19T08:34:20.688Z,58.80
2017-07-19T08:36:47.047Z,57.20
2017-07-19T08:39:14.207Z,61.20
2017-07-19T08:41:41.339Z,63.10
2017-07-19T08:44:07.774Z,63.00
2017-07-19T08:46:34.312Z,55.50
2017-07-19T08:49:00.735Z,54.50
2017-07-19T08:51:27.159Z,54.40
2017-07-19T08:53:53.534Z,54.40
2017-07-19T08:56:19.907Z,54.50
2017-07-19T08:58:46.298Z,54.30
2017-07-19T09:01:12.683Z,54.50
2017-07-19T09:03:39.080Z,52.30
2017-07-19T09:06:05.459Z,51.40
2017-07-19T09:08:31.859Z,56.90
2017-07-19T09:10:58.231Z,52.80
2017-07-19T09:13:25.381Z,47.10
2017-07-19T09:15:51.775Z,47.10
2017-07-19T09:18:19.264Z,46.10
2017-07-19T09:20:45.647Z,42.30
2017-07-19T09:23:12.021Z,38.40
2017-07-19T09:25:38.387Z,35.10
2017-07-19T09:28:04.739Z,33.00
2017-07-19T09:30:31.167Z,30.20
2017-07-19T09:32:57.503Z,29.50
2017-07-19T09:35:23.892Z,27.80
2017-07-19T09:37:50.263Z,28.20
2017-07-19T09:40:17.371Z,26.00
2017-07-19T09:42:43.728Z,26.00
2017-07-19T09:45:10.126Z,26.80
2017-07-19T09:47:37.245Z,25.50
2017-07-19T09:50:03.635Z,24.80
2017-07-19T09:52:30.026Z,26.40
2017-07-19T09:54:56.399Z,26.10
2017-07-19T09:57:22.774Z,24.10
2017-07-19T09:59:49.155Z,25.30
2017-07-19T10:02:16.235Z,25.00
2017-07-19T10:04:42.603Z,24.50
2017-07-19T10:07:08.935Z,25.70
2017-07-19T10:09:35.306Z,25.10
2017-07-19T10:12:01.666Z,26.00
2017-07-19T10:14:28.063Z,25.70
2017-07-19T10:16:54.423Z,27.60
2017-07-19T10:19:20.835Z,29.50
2017-07-19T10:21:47.252Z,29.50
2017-07-19T10:24:13.649Z,31.70
2017-07-19T10:26:40.024Z,32.00
2017-07-19T10:29:07.194Z,37.30
2017-07-19T10:31:33.579Z,38.00
2017-07-19T10:33:59.953Z,39.30
2017-07-19T10:36:27.400Z,37.10
2017-07-19T10:38:53.790Z,39.20
2017-07-19T10:41:20.187Z,38.40
2017-07-19T10:43:46.595Z,41.20
2017-07-19T10:46:13.751Z,39.90
2017-07-19T10:48:40.128Z,39.90
2017-07-19T10:51:06.589Z,42.40
2017-07-19T10:53:32.931Z,41.10
2017-07-19T10:55:59.322Z,40.80
2017-07-19T10:58:25.764Z,41.40
2017-07-19T11:00:52.187Z,41.30
2017-07-19T11:03:18.563Z,42.00
2017-07-19T11:05:44.975Z,41.50
2017-07-19T11:08:12.947Z,41.20
2017-07-19T11:10:39.285Z,40.50
2017-07-19T11:13:05.792Z,42.00
2017-07-19T11:15:32.972Z,41.70
2017-07-19T11:17:59.347Z,41.80
2017-07-19T11:20:25.712Z,41.00
2017-07-19T11:22:52.092Z,40.30
2017-07-19T11:25:18.479Z,41.60
2017-07-19T11:27:44.832Z,40.60
2017-07-19T11:30:11.183Z,43.80
2017-07-19T11:32:37.527Z,40.50
2017-07-19T11:35:03.949Z,40.80
2017-07-19T11:37:31.809Z,42.90
2017-07-19T11:39:58.187Z,42.10
2017-07-19T11:42:24.534Z,40.50
2017-07-19T11:44:50.876Z,40.30
2017-07-19T11:47:17.218Z,39.00
2017-07-19T11:49:43.635Z,39.60
2017-07-19T11:52:10.023Z,41.20
2017-07-19T11:54:36.431Z,39.10
2017-07-19T11:57:02.799Z,40.30
2017-07-19T11:59:29.886Z,39.00
2017-07-19T12:01:56.284Z,39.00
2017-07-19T12:04:23.448Z,41.30
2017-07-19T12:06:49.856Z,41.30
2017-07-19T12:09:16.275Z,40.40
2017-07-19T12:11:42.671Z,42.20
2017-07-19T12:14:09.058Z,40.70
2017-07-19T12:16:35.439Z,39.40
2017-07-19T12:19:01.835Z,39.20
2017-07-19T12:21:28.215Z,40.50
2017-07-19T12:23:54.567Z,41.20
2017-07-19T12:26:20.995Z,38.00
2017-07-19T12:28:47.383Z,38.50
2017-07-19T12:31:13.779Z,38.90
2017-07-19T12:33:40.115Z,38.50
2017-07-19T12:36:06.501Z,37.90
2017-07-19T12:38:32.871Z,37.50
2017-07-19T12:40:59.251Z,37.10
2017-07-19T12:43:25.614Z,37.30
2017-07-19T12:45:52.731Z,34.60
2017-07-19T12:48:19.871Z,35.00
2017-07-19T12:50:46.239Z,34.80
2017-07-19T12:53:12.584Z,31.40
2017-07-19T12:55:39.007Z,28.00
2017-07-19T12:58:05.359Z,31.60
2017-07-19T13:00:31.743Z,27.40
2017-07-19T13:02:59.865Z,26.70
2017-07-19T13:05:26.215Z,26.20
2017-07-19T13:07:52.562Z,25.00
2017-07-19T13:10:18.956Z,23.10
2017-07-19T13:12:45.331Z,21.30
2017-07-19T13:15:11.682Z,22.10
2017-07-19T13:17:38.796Z,22.30
2017-07-19T13:20:05.195Z,21.80
2017-07-19T13:22:31.554Z,20.80
2017-07-19T13:25:01.181Z,19.50
2017-07-19T13:27:27.543Z,19.50
2017-07-19T13:29:53.932Z,19.90
2017-07-19T13:32:20.311Z,18.90
2017-07-19T13:34:47.383Z,20.20
2017-07-19T13:37:13.751Z,19.90
2017-07-19T13:39:40.142Z,18.60
2017-07-19T13:42:06.518Z,19.10
2017-07-19T13:44:32.936Z,18.50
2017-07-19T13:46:59.379Z,19.30
2017-07-19T13:49:25.772Z,19.20
2017-07-19T13:51:52.291Z,20.40
2017-07-19T13:54:18.678Z,19.20
2017-07-19T13:56:45.802Z,18.30
2017-07-19T13:59:12.203Z,18.10
2017-07-19T14:01:38.608Z,18.30
2017-07-19T14:04:04.974Z,19.90
2017-07-19T14:06:31.402Z,20.10
2017-07-19T14:08:57.768Z,19.40
2017-07-19T14:11:24.160Z,18.70
2017-07-19T14:13:50.553Z,20.40
2017-07-19T14:16:16.955Z,18.80
2017-07-19T14:18:43.323Z,22.20
2017-07-19T14:21:09.715Z,20.70
2017-07-19T14:23:36.078Z,21.70
2017-07-19T14:26:02.465Z,24.20
2017-07-19T14:28:28.835Z,24.30
2017-07-19T14:30:55.221Z,20.90
2017-07-19T14:33:22.429Z,21.40
2017-07-19T14:35:48.803Z,21.80
2017-07-19T14:38:15.195Z,25.80
2017-07-19T14:40:41.567Z,25.20
2017-07-19T14:43:07.931Z,23.70
2017-07-19T14:45:34.335Z,25.00
2017-07-19T14:48:01.454Z,25.50
2017-07-19T14:50:27.849Z,24.90
2017-07-19T14:52:54.256Z,22.30
2017-07-19T14:55:20.602Z,21.10
2017-07-19T14:57:47.027Z,20.80
2017-07-19T15:00:13.436Z,20.90
2017-07-19T15:02:39.811Z,23.50
2017-07-19T15:05:06.176Z,24.90
2017-07-19T15:07:33.308Z,30.70
2017-07-19T15:09:59.703Z,30.70
2017-07-19T15:12:26.069Z,30.10
2017-07-19T15:14:52.419Z,26.60
2017-07-19T15:17:18.796Z,31.90
2017-07-19T15:19:45.168Z,28.90
2017-07-19T15:22:11.531Z,29.60
2017-07-19T15:24:37.901Z,34.30
2017-07-19T15:27:04.284Z,32.00
2017-07-19T15:29:30.651Z,32.90
2017-07-19T15:31:57.023Z,35.00
2017-07-19T15:34:23.557Z,32.60
2017-07-19T15:36:49.960Z,33.20
2017-07-19T15:39:16.326Z,33.80
2017-07-19T15:41:43.491Z,37.00
2017-07-19T15:44:09.919Z,37.00
2017-07-19T15:46:36.279Z,37.10
2017-07-19T15:49:02.655Z,33.70
2017-07-19T15:51:29.071Z,35.50
2017-07-19T15:53:55.403Z,35.80
2017-07-19T15:56:21.742Z,36.40
2017-07-19T15:58:48.119Z,37.30
2017-07-19T22:10:33.198Z,95.00
2017-07-19T22:13:00.211Z,94.70
2017-07-19T22:15:26.485Z,94.70
2017-07-19T22:17:52.737Z,94.40
2017-07-19T22:20:20.055Z,94.40
2017-07-19T22:22:46.322Z,94.00
2017-07-19T22:25:13.715Z,94.20
2017-07-19T22:27:40.109Z,93.90
2017-07-19T22:30:06.438Z,93.50
2017-07-19T22:32:32.730Z,93.20
2017-07-19T22:34:59.038Z,93.10
2017-07-19T22:37:26.046Z,92.30
2017-07-19T22:39:52.323Z,92.30
2017-07-19T22:42:18.597Z,91.90
2017-07-19T22:44:45.219Z,91.60
2017-07-19T22:47:14.531Z,91.60
2017-07-19T22:49:41.626Z,91.70
2017-07-19T22:52:07.900Z,91.70
2017-07-19T22:54:34.195Z,91.70
2017-07-19T22:57:00.466Z,91.40
2017-07-19T22:59:27.774Z,91.60
2017-07-19T23:01:54.052Z,91.90
2017-07-19T23:04:20.345Z,91.90
2017-07-19T23:06:46.647Z,91.80
2017-07-19T23:09:12.937Z,91.90
2017-07-19T23:11:39.238Z,92.10
2017-07-19T23:14:05.542Z,92.20
2017-07-19T23:16:31.818Z,92.00
2017-07-19T23:18:58.117Z,92.20
2017-07-19T23:21:24.387Z,92.10
2017-07-19T23:23:50.626Z,92.50
2017-07-19T23:26:16.947Z,92.50
2017-07-19T23:28:43.221Z,92.50
2017-07-19T23:31:09.489Z,92.70
2017-07-19T23:33:35.934Z,92.70
2017-07-19T23:36:02.231Z,92.60
2017-07-19T23:38:28.513Z,92.60
2017-07-19T23:40:54.794Z,92.90
2017-07-19T23:43:21.070Z,92.70
2017-07-19T23:45:47.347Z,92.90
2017-07-19T23:48:13.626Z,92.90
2017-07-19T23:50:39.906Z,92.70
2017-07-19T23:53:06.174Z,92.80
2017-07-19T23:55:32.452Z,93.00
2017-07-19T23:57:58.730Z,93.00
